createdAt,value
2022-08-19T00:00:51.078Z,1004.44
2022-08-19T00:01:53.199Z,1004.47
2022-08-19T00:02:51.244Z,1004.49
2022-08-19T00:03:51.064Z,1004.54
2022-08-19T00:04:51.087Z,1004.55
2022-08-19T00:05:51.013Z,1004.54
2022-08-19T00:06:51.013Z,1004.51
2022-08-19T00:07:51.000Z,1004.47
2022-08-19T00:08:51.097Z,1004.41
2022-08-19T00:09:50.972Z,1004.37
2022-08-19T00:10:50.962Z,1004.42
2022-08-19T00:11:50.953Z,1004.50
2022-08-19T00:12:51.056Z,1004.56
2022-08-19T00:13:50.951Z,1004.60
2022-08-19T00:14:50.957Z,1004.68
2022-08-19T00:15:50.907Z,1004.78
2022-08-19T00:16:50.899Z,1004.79
2022-08-19T00:17:50.920Z,1004.77
2022-08-19T00:18:50.891Z,1004.80
2022-08-19T00:19:50.883Z,1004.82
2022-08-19T00:20:50.861Z,1004.76
2022-08-19T00:21:50.850Z,1004.75
2022-08-19T00:22:50.954Z,1004.76
2022-08-19T00:23:50.822Z,1004.73
2022-08-19T00:24:51.139Z,1004.72
2022-08-19T00:25:50.924Z,1004.66
2022-08-19T00:26:50.788Z,1004.69
2022-08-19T00:27:50.778Z,1004.67
2022-08-19T00:28:50.772Z,1004.68
2022-08-19T00:29:52.315Z,1004.64
2022-08-19T00:30:50.743Z,1004.63
2022-08-19T00:31:50.851Z,1004.59
2022-08-19T00:32:50.724Z,1004.61
2022-08-19T00:33:50.713Z,1004.53
2022-08-19T00:34:50.717Z,1004.53
2022-08-19T00:35:56.275Z,1004.55
2022-08-19T00:36:51.686Z,1004.51
2022-08-19T00:37:50.662Z,1004.47
2022-08-19T00:38:50.655Z,1004.45
2022-08-19T00:39:50.712Z,1004.50
2022-08-19T00:40:50.634Z,1004.51
2022-08-19T00:41:50.625Z,1004.52
2022-08-19T00:42:50.768Z,1004.49
2022-08-19T00:43:50.605Z,1004.46
2022-08-19T00:44:50.610Z,1004.44
2022-08-19T00:45:50.612Z,1004.33
2022-08-19T00:46:57.716Z,1004.35
2022-08-19T00:47:51.551Z,1004.31
2022-08-19T00:48:50.915Z,1004.32
2022-08-19T00:49:50.537Z,1004.38
2022-08-19T00:50:51.816Z,1004.37
2022-08-19T00:51:50.513Z,1004.37
2022-08-19T00:52:50.509Z,1004.39
2022-08-19T00:53:50.489Z,1004.39
2022-08-19T00:54:52.680Z,1004.37
2022-08-19T00:55:51.320Z,1004.31
2022-08-19T00:56:50.461Z,1004.33
2022-08-19T00:57:50.443Z,1004.36
2022-08-19T00:58:50.437Z,1004.34
2022-08-19T01:00:00.880Z,1004.31
2022-08-19T01:00:51.426Z,1004.35
2022-08-19T01:01:50.723Z,1004.36
2022-08-19T01:02:50.394Z,1004.39
2022-08-19T01:03:57.599Z,1004.44
2022-08-19T01:04:51.380Z,1004.45
2022-08-19T01:05:50.723Z,1004.53
2022-08-19T01:06:50.346Z,1004.55
2022-08-19T01:07:50.334Z,1004.50
2022-08-19T01:08:50.410Z,1004.51
2022-08-19T01:09:50.332Z,1004.51
2022-08-19T01:10:50.305Z,1004.46
2022-08-19T01:11:50.299Z,1004.48
2022-08-19T01:12:50.276Z,1004.51
2022-08-19T01:13:50.461Z,1004.57
2022-08-19T01:14:50.266Z,1004.64
2022-08-19T01:15:50.299Z,1004.73
2022-08-19T01:16:50.236Z,1004.70
2022-08-19T01:17:50.223Z,1004.72
2022-08-19T01:18:50.223Z,1004.69
2022-08-19T01:19:50.223Z,1004.64
2022-08-19T01:20:50.210Z,1004.66
2022-08-19T01:21:50.178Z,1004.61
2022-08-19T01:22:50.171Z,1004.65
2022-08-19T01:23:50.160Z,1004.77
2022-08-19T01:24:50.241Z,1004.77
2022-08-19T01:25:50.159Z,1004.81
2022-08-19T01:26:50.131Z,1004.77
2022-08-19T01:27:50.118Z,1004.76
2022-08-19T01:28:50.103Z,1004.76
2022-08-19T01:29:50.097Z,1004.72
2022-08-19T01:30:51.038Z,1004.76
2022-08-19T01:31:50.070Z,1004.77
2022-08-19T01:32:50.062Z,1004.81
2022-08-19T01:33:50.046Z,1004.71
2022-08-19T01:34:50.037Z,1004.71
2022-08-19T01:35:50.074Z,1004.70
2022-08-19T01:36:50.030Z,1004.70
2022-08-19T01:37:50.001Z,1004.68
2022-08-19T01:38:50.031Z,1004.74
2022-08-19T01:39:50.138Z,1004.71
2022-08-19T01:40:49.969Z,1004.69
2022-08-19T01:41:50.260Z,1004.67
2022-08-19T01:42:49.949Z,1004.66
2022-08-19T01:44:09.950Z,1004.68
2022-08-19T01:44:50.919Z,1004.62
2022-08-19T01:45:49.914Z,1004.59
2022-08-19T01:46:49.932Z,1004.49
2022-08-19T01:47:55.533Z,1004.43
2022-08-19T01:48:50.878Z,1004.43
2022-08-19T01:49:49.870Z,1004.48
2022-08-19T01:50:49.862Z,1004.38
2022-08-19T01:51:49.864Z,1004.38
2022-08-19T01:52:49.928Z,1004.44
2022-08-19T01:53:50.819Z,1004.50
2022-08-19T01:54:49.810Z,1004.51
2022-08-19T01:55:49.797Z,1004.45
2022-08-19T01:56:50.166Z,1004.34
2022-08-19T01:57:49.774Z,1004.20
2022-08-19T01:58:49.787Z,1004.19
2022-08-19T01:59:49.777Z,1004.05
2022-08-19T02:00:49.761Z,1003.97
2022-08-19T02:01:49.774Z,1003.81
2022-08-19T02:02:49.903Z,1003.79
2022-08-19T02:03:49.736Z,1003.72
2022-08-19T02:04:49.722Z,1003.64
2022-08-19T02:05:49.710Z,1003.65
2022-08-19T02:06:49.706Z,1003.73
2022-08-19T02:07:49.663Z,1003.88
2022-08-19T02:08:49.669Z,1003.90
2022-08-19T02:09:49.709Z,1003.90
2022-08-19T02:10:49.635Z,1003.92
2022-08-19T02:11:49.619Z,1003.93
2022-08-19T02:12:49.737Z,1003.98
2022-08-19T02:13:49.823Z,1003.94
2022-08-19T02:14:49.590Z,1003.88
2022-08-19T02:15:49.910Z,1003.78
2022-08-19T02:16:49.568Z,1003.72
2022-08-19T02:17:49.552Z,1003.66
2022-08-19T02:18:49.555Z,1003.66
2022-08-19T02:19:49.526Z,1003.58
2022-08-19T02:20:49.528Z,1003.49
2022-08-19T02:21:49.525Z,1003.48
2022-08-19T02:22:49.706Z,1003.47
2022-08-19T02:23:49.522Z,1003.41
2022-08-19T02:24:49.470Z,1003.45
2022-08-19T02:25:49.458Z,1003.46
2022-08-19T02:26:49.450Z,1003.43
2022-08-19T02:27:49.439Z,1003.35
2022-08-19T02:28:49.425Z,1003.36
2022-08-19T02:29:49.435Z,1003.41
2022-08-19T02:30:49.518Z,1003.39
2022-08-19T02:31:49.387Z,1003.43
2022-08-19T02:32:49.381Z,1003.47
2022-08-19T02:33:49.374Z,1003.54
2022-08-19T02:34:49.374Z,1003.56
2022-08-19T02:35:49.410Z,1003.61
2022-08-19T02:36:52.031Z,1003.62
2022-08-19T02:37:49.327Z,1003.67
2022-08-19T02:38:54.930Z,1003.64
2022-08-19T02:39:50.396Z,1003.62
2022-08-19T02:40:49.289Z,1003.61
2022-08-19T02:41:49.278Z,1003.59
2022-08-19T02:42:49.285Z,1003.62
2022-08-19T02:44:29.033Z,1003.69
2022-08-19T02:44:50.248Z,1003.71
2022-08-19T02:45:49.275Z,1003.77
2022-08-19T02:47:42.354Z,1003.71
2022-08-19T02:48:42.327Z,1003.69
2022-08-19T02:49:42.316Z,1003.69
2022-08-19T02:50:51.991Z,1003.72
2022-08-19T02:51:43.291Z,1003.72
2022-08-19T02:52:42.280Z,1003.72
2022-08-19T02:53:43.017Z,1003.65
2022-08-19T02:54:42.262Z,1003.64
2022-08-19T02:55:46.327Z,1003.71
2022-08-19T02:56:42.235Z,1003.68
2022-08-19T02:57:42.254Z,1003.71
2022-08-19T02:58:42.215Z,1003.76
2022-08-19T02:59:42.205Z,1003.75
2022-08-19T03:00:42.246Z,1003.78
2022-08-19T03:01:42.445Z,1003.74
2022-08-19T03:02:42.193Z,1003.79
2022-08-19T03:03:42.158Z,1003.75
2022-08-19T03:04:42.350Z,1003.73
2022-08-19T03:05:48.047Z,1003.73
2022-08-19T03:06:43.124Z,1003.73
2022-08-19T03:07:42.117Z,1003.75
2022-08-19T03:08:42.307Z,1003.71
2022-08-19T03:09:42.096Z,1003.74
2022-08-19T03:10:43.020Z,1003.75
2022-08-19T03:11:42.074Z,1003.73
2022-08-19T03:12:42.079Z,1003.66
2022-08-19T03:13:42.051Z,1003.71
2022-08-19T03:14:42.036Z,1003.71
2022-08-19T03:15:42.027Z,1003.68
2022-08-19T03:16:42.032Z,1003.70
2022-08-19T03:17:42.030Z,1003.68
2022-08-19T03:18:41.992Z,1003.66
2022-08-19T03:19:41.978Z,1003.64
2022-08-19T03:20:41.983Z,1003.60
2022-08-19T03:21:41.959Z,1003.58
2022-08-19T03:22:41.975Z,1003.57
2022-08-19T03:23:41.954Z,1003.48
2022-08-19T03:24:41.929Z,1003.48
2022-08-19T03:25:42.140Z,1003.46
2022-08-19T03:26:41.932Z,1003.44
2022-08-19T03:27:41.897Z,1003.43
2022-08-19T03:28:41.882Z,1003.45
2022-08-19T03:29:44.067Z,1003.46
2022-08-19T03:30:41.860Z,1003.43
2022-08-19T03:31:51.016Z,1003.51
2022-08-19T03:32:45.514Z,1003.45
2022-08-19T03:33:41.846Z,1003.46
2022-08-19T03:34:41.818Z,1003.48
2022-08-19T03:35:41.830Z,1003.53
2022-08-19T03:36:41.833Z,1003.56
2022-08-19T03:37:41.801Z,1003.55
2022-08-19T03:38:41.773Z,1003.50
2022-08-19T03:39:41.799Z,1003.45
2022-08-19T03:40:41.879Z,1003.48
2022-08-19T03:41:45.027Z,1003.47
2022-08-19T03:42:49.095Z,1003.51
2022-08-19T03:43:42.741Z,1003.49
2022-08-19T03:44:41.711Z,1003.51
2022-08-19T03:45:41.721Z,1003.49
2022-08-19T03:46:42.365Z,1003.57
2022-08-19T03:47:41.676Z,1003.58
2022-08-19T03:48:41.681Z,1003.58
2022-08-19T03:49:41.652Z,1003.62
2022-08-19T03:50:41.642Z,1003.59
2022-08-19T03:51:41.633Z,1003.65
2022-08-19T03:52:45.433Z,1003.64
2022-08-19T03:53:42.638Z,1003.62
2022-08-19T03:54:41.595Z,1003.60
2022-08-19T03:55:41.586Z,1003.60
2022-08-19T03:56:41.572Z,1003.60
2022-08-19T03:57:41.612Z,1003.53
2022-08-19T03:58:41.567Z,1003.57
2022-08-19T03:59:41.906Z,1003.48
2022-08-19T04:00:41.534Z,1003.46
2022-08-19T04:01:41.551Z,1003.44
2022-08-19T04:02:41.511Z,1003.49
2022-08-19T04:03:41.524Z,1003.48
2022-08-19T04:04:41.486Z,1003.48
2022-08-19T04:05:41.480Z,1003.53
2022-08-19T04:06:41.468Z,1003.48
2022-08-19T04:07:41.453Z,1003.53
2022-08-19T04:08:42.078Z,1003.50
2022-08-19T04:09:41.433Z,1003.50
2022-08-19T04:10:41.429Z,1003.53
2022-08-19T04:11:43.882Z,1003.49
2022-08-19T04:12:41.406Z,1003.54
2022-08-19T04:13:41.411Z,1003.61
2022-08-19T04:14:41.410Z,1003.66
2022-08-19T04:15:41.366Z,1003.65
2022-08-19T04:16:41.354Z,1003.71
2022-08-19T04:17:41.372Z,1003.79
2022-08-19T04:18:41.350Z,1003.76
2022-08-19T04:19:41.318Z,1003.80
2022-08-19T04:20:41.309Z,1003.77
2022-08-19T04:21:41.335Z,1003.71
2022-08-19T04:22:41.327Z,1003.67
2022-08-19T04:23:45.471Z,1003.69
2022-08-19T04:24:42.262Z,1003.63
2022-08-19T04:25:41.249Z,1003.61
2022-08-19T04:26:41.242Z,1003.61
2022-08-19T04:27:41.292Z,1003.64
2022-08-19T04:28:41.238Z,1003.68
2022-08-19T04:29:41.211Z,1003.67
2022-08-19T04:30:41.203Z,1003.67
2022-08-19T04:31:41.194Z,1003.64
2022-08-19T04:32:41.180Z,1003.63
2022-08-19T04:33:41.223Z,1003.67
2022-08-19T04:35:03.026Z,1003.72
2022-08-19T04:35:42.144Z,1003.70
2022-08-19T04:36:41.133Z,1003.72
2022-08-19T04:37:41.121Z,1003.67
2022-08-19T04:38:41.117Z,1003.65
2022-08-19T04:39:41.191Z,1003.67
2022-08-19T04:40:41.391Z,1003.69
2022-08-19T04:41:41.078Z,1003.66
2022-08-19T04:42:41.071Z,1003.61
2022-08-19T04:43:41.075Z,1003.69
2022-08-19T04:44:46.033Z,1003.62
2022-08-19T04:45:43.678Z,1003.62
2022-08-19T04:46:51.545Z,1003.64
2022-08-19T04:47:49.419Z,1003.62
2022-08-19T04:48:44.913Z,1003.66
2022-08-19T04:49:41.987Z,1003.68
2022-08-19T04:50:40.979Z,1003.67
2022-08-19T04:51:40.969Z,1003.68
2022-08-19T04:52:40.957Z,1003.65
2022-08-19T04:53:40.959Z,1003.66
2022-08-19T04:54:40.953Z,1003.62
2022-08-19T04:55:40.924Z,1003.69
2022-08-19T04:56:40.940Z,1003.68
2022-08-19T04:57:41.579Z,1003.64
2022-08-19T04:58:40.925Z,1003.60
2022-08-19T04:59:40.902Z,1003.60
2022-08-19T05:00:41.088Z,1003.57
2022-08-19T05:01:40.886Z,1003.53
2022-08-19T05:02:40.840Z,1003.54
2022-08-19T05:03:41.127Z,1003.53
2022-08-19T05:04:40.834Z,1003.58
2022-08-19T05:05:45.234Z,1003.57
2022-08-19T05:06:40.796Z,1003.62
2022-08-19T05:07:40.786Z,1003.56
2022-08-19T05:08:40.776Z,1003.58
2022-08-19T05:09:57.556Z,1003.55
2022-08-19T05:10:41.765Z,1003.53
2022-08-19T05:11:40.744Z,1003.54
2022-08-19T05:12:40.729Z,1003.58
2022-08-19T05:13:40.748Z,1003.48
2022-08-19T05:14:40.706Z,1003.53
2022-08-19T05:15:40.703Z,1003.52
2022-08-19T05:16:40.829Z,1003.48
2022-08-19T05:17:40.709Z,1003.49
2022-08-19T05:18:40.683Z,1003.49
2022-08-19T05:19:40.654Z,1003.51
2022-08-19T05:20:40.885Z,1003.49
2022-08-19T05:21:40.650Z,1003.46
2022-08-19T05:22:40.615Z,1003.46
2022-08-19T05:23:40.602Z,1003.45
2022-08-19T05:24:56.410Z,1003.39
2022-08-19T05:25:41.598Z,1003.35
2022-08-19T05:26:40.590Z,1003.36
2022-08-19T05:27:40.566Z,1003.34
2022-08-19T05:28:40.562Z,1003.38
2022-08-19T05:29:40.536Z,1003.22
2022-08-19T05:30:47.140Z,1003.30
2022-08-19T05:31:41.700Z,1003.27
2022-08-19T05:32:40.515Z,1003.31
2022-08-19T05:33:40.494Z,1003.25
2022-08-19T05:34:40.489Z,1003.21
2022-08-19T05:35:40.510Z,1003.21
2022-08-19T05:36:40.458Z,1003.20
2022-08-19T05:37:40.790Z,1003.23
2022-08-19T05:38:40.436Z,1003.20
2022-08-19T05:39:40.434Z,1003.19
2022-08-19T05:40:40.413Z,1003.22
2022-08-19T05:41:40.424Z,1003.25
2022-08-19T05:42:40.390Z,1003.32
2022-08-19T05:43:40.382Z,1003.36
2022-08-19T05:44:40.373Z,1003.38
2022-08-19T05:45:40.376Z,1003.41
2022-08-19T05:46:40.346Z,1003.42
2022-08-19T05:47:40.649Z,1003.52
2022-08-19T05:48:40.366Z,1003.52
2022-08-19T05:49:40.317Z,1003.52
2022-08-19T05:50:40.320Z,1003.55
2022-08-19T05:51:40.292Z,1003.50
2022-08-19T05:52:45.913Z,1003.48
2022-08-19T05:53:41.267Z,1003.46
2022-08-19T05:54:40.302Z,1003.44
2022-08-19T05:55:40.301Z,1003.44
2022-08-19T05:56:40.235Z,1003.39
2022-08-19T05:57:40.229Z,1003.40
2022-08-19T05:58:40.213Z,1003.37
2022-08-19T05:59:40.203Z,1003.29
2022-08-19T06:00:40.197Z,1003.35
2022-08-19T06:01:40.210Z,1003.38
2022-08-19T06:02:40.184Z,1003.37
2022-08-19T06:03:40.169Z,1003.43
2022-08-19T06:04:40.169Z,1003.45
2022-08-19T06:05:46.247Z,1003.47
2022-08-19T06:06:41.126Z,1003.45
2022-08-19T06:07:40.120Z,1003.54
2022-08-19T06:08:40.104Z,1003.48
2022-08-19T06:09:40.098Z,1003.51
2022-08-19T06:10:40.120Z,1003.56
2022-08-19T06:11:40.086Z,1003.61
2022-08-19T06:12:40.067Z,1003.56
2022-08-19T06:13:40.047Z,1003.62
2022-08-19T06:14:41.873Z,1003.63
2022-08-19T06:15:40.047Z,1003.67
2022-08-19T06:16:40.101Z,1003.69
2022-08-19T06:17:40.008Z,1003.69
2022-08-19T06:18:40.003Z,1003.67
2022-08-19T06:19:40.739Z,1003.64
2022-08-19T06:20:55.104Z,1003.60
2022-08-19T06:21:40.981Z,1003.59
2022-08-19T06:22:39.952Z,1003.57
2022-08-19T06:23:39.950Z,1003.56
2022-08-19T06:24:39.937Z,1003.56
2022-08-19T06:25:39.916Z,1003.53
2022-08-19T06:26:40.085Z,1003.54
2022-08-19T06:27:53.041Z,1003.58
2022-08-19T06:28:40.882Z,1003.57
2022-08-19T06:29:40.679Z,1003.56
2022-08-19T06:30:39.879Z,1003.57
2022-08-19T06:31:39.873Z,1003.61
2022-08-19T06:32:42.778Z,1003.53
2022-08-19T06:33:39.857Z,1003.54
2022-08-19T06:34:39.829Z,1003.56
2022-08-19T06:35:39.891Z,1003.57
2022-08-19T06:36:39.817Z,1003.55
2022-08-19T06:37:43.693Z,1003.53
2022-08-19T06:38:39.774Z,1003.49
2022-08-19T06:39:39.817Z,1003.51
2022-08-19T06:40:39.819Z,1003.51
2022-08-19T06:41:43.632Z,1003.53
2022-08-19T06:42:43.285Z,1003.55
2022-08-19T06:43:41.244Z,1003.55
2022-08-19T06:44:42.796Z,1003.61
2022-08-19T06:45:39.940Z,1003.67
2022-08-19T06:46:39.705Z,1003.69
2022-08-19T06:47:39.677Z,1003.68
2022-08-19T06:48:39.662Z,1003.76
2022-08-19T06:49:40.829Z,1003.82
2022-08-19T06:50:39.852Z,1003.82
2022-08-19T06:51:42.701Z,1003.84
2022-08-19T06:52:39.621Z,1003.88
2022-08-19T06:53:39.668Z,1003.86
2022-08-19T06:54:56.095Z,1003.86
2022-08-19T06:55:40.586Z,1003.87
2022-08-19T06:56:39.768Z,1003.83
2022-08-19T06:57:39.563Z,1003.86
2022-08-19T06:58:39.550Z,1003.87
2022-08-19T06:59:39.540Z,1003.87
2022-08-19T07:00:39.641Z,1003.89
2022-08-19T07:01:39.538Z,1003.97
2022-08-19T07:02:40.060Z,1003.96
2022-08-19T07:03:39.684Z,1003.96
2022-08-19T07:04:42.077Z,1004.02
2022-08-19T07:05:39.512Z,1004.03
2022-08-19T07:06:43.287Z,1004.05
2022-08-19T07:07:40.474Z,1004.02
2022-08-19T07:09:39.431Z,1004.10
2022-08-19T07:10:42.800Z,1004.10
2022-08-19T07:11:39.661Z,1004.11
2022-08-19T07:12:39.405Z,1004.13
2022-08-19T07:13:39.386Z,1004.12
2022-08-19T07:14:39.396Z,1004.08
2022-08-19T07:15:39.899Z,1004.09
2022-08-19T07:16:42.881Z,1004.07
2022-08-19T07:17:39.701Z,1004.05
2022-08-19T07:18:39.338Z,1004.00
2022-08-19T07:19:39.319Z,1003.97
2022-08-19T07:20:39.341Z,1003.98
2022-08-19T07:21:39.305Z,1003.96
2022-08-19T07:22:39.289Z,1003.97
2022-08-19T07:23:39.280Z,1003.97
2022-08-19T07:24:39.263Z,1003.99
2022-08-19T07:25:40.274Z,1004.00
2022-08-19T07:26:39.245Z,1003.96
2022-08-19T07:27:39.589Z,1004.00
2022-08-19T07:28:40.127Z,1003.99
2022-08-19T07:29:40.210Z,1003.96
2022-08-19T07:30:39.219Z,1003.98
2022-08-19T07:31:39.356Z,1003.97
2022-08-19T07:32:39.183Z,1003.96
2022-08-19T07:33:39.164Z,1003.99
2022-08-19T07:34:40.063Z,1004.02
2022-08-19T07:35:39.158Z,1004.07
2022-08-19T07:36:40.133Z,1004.09
2022-08-19T07:37:39.120Z,1004.12
2022-08-19T07:38:39.113Z,1004.19
2022-08-19T07:39:39.148Z,1004.21
2022-08-19T07:40:39.108Z,1004.19
2022-08-19T07:41:39.078Z,1004.21
2022-08-19T07:42:39.067Z,1004.25
2022-08-19T07:43:39.060Z,1004.23
2022-08-19T07:45:39.149Z,1004.20
2022-08-19T07:46:39.030Z,1004.22
2022-08-19T07:47:49.930Z,1004.24
2022-08-19T07:48:40.005Z,1004.30
2022-08-19T07:49:39.025Z,1004.35
2022-08-19T07:50:38.976Z,1004.33
2022-08-19T07:51:39.630Z,1004.31
2022-08-19T07:52:38.954Z,1004.32
2022-08-19T07:53:39.934Z,1004.31
2022-08-19T07:54:38.947Z,1004.30
2022-08-19T07:55:40.659Z,1004.29
2022-08-19T07:56:38.909Z,1004.29
2022-08-19T07:57:38.955Z,1004.30
2022-08-19T07:58:38.890Z,1004.37
2022-08-19T07:59:38.878Z,1004.37
2022-08-19T08:00:38.888Z,1004.37
2022-08-19T08:01:41.908Z,1004.39
2022-08-19T08:02:38.854Z,1004.39
2022-08-19T08:03:38.832Z,1004.41
2022-08-19T08:04:38.832Z,1004.41
2022-08-19T08:05:43.011Z,1004.41
2022-08-19T08:06:38.872Z,1004.34
2022-08-19T08:07:38.795Z,1004.33
2022-08-19T08:08:44.181Z,1004.37
2022-08-19T08:09:39.768Z,1004.44
2022-08-19T08:10:38.761Z,1004.44
2022-08-19T08:11:38.798Z,1004.38
2022-08-19T08:12:38.738Z,1004.45
2022-08-19T08:13:39.006Z,1004.47
2022-08-19T08:14:38.712Z,1004.56
2022-08-19T08:15:43.094Z,1004.60
2022-08-19T08:16:39.661Z,1004.60
2022-08-19T08:17:49.096Z,1004.67
2022-08-19T08:18:39.682Z,1004.64
2022-08-19T08:19:38.660Z,1004.66
2022-08-19T08:20:38.650Z,1004.68
2022-08-19T08:22:38.647Z,1004.63
2022-08-19T08:23:39.752Z,1004.67
2022-08-19T08:24:38.606Z,1004.67
2022-08-19T08:25:38.599Z,1004.67
2022-08-19T08:26:38.580Z,1004.67
2022-08-19T08:27:39.591Z,1004.67
2022-08-19T08:28:38.564Z,1004.66
2022-08-19T08:29:38.555Z,1004.66
2022-08-19T08:30:38.553Z,1004.72
2022-08-19T08:31:38.527Z,1004.68
2022-08-19T08:32:38.542Z,1004.70
2022-08-19T08:33:38.542Z,1004.67
2022-08-19T08:34:38.491Z,1004.79
2022-08-19T08:35:38.485Z,1004.70
2022-08-19T08:36:38.654Z,1004.69
2022-08-19T08:37:38.481Z,1004.72
2022-08-19T08:38:40.827Z,1004.68
2022-08-19T08:39:38.467Z,1004.69
2022-08-19T08:40:38.449Z,1004.70
2022-08-19T08:41:38.416Z,1004.70
2022-08-19T08:42:38.436Z,1004.72
2022-08-19T08:43:38.410Z,1004.75
2022-08-19T08:44:38.387Z,1004.70
2022-08-19T08:45:42.415Z,1004.68
2022-08-19T08:46:38.384Z,1004.75
2022-08-19T08:47:46.662Z,1004.73
2022-08-19T08:48:38.342Z,1004.68
2022-08-19T08:49:38.324Z,1004.72
2022-08-19T08:50:38.324Z,1004.70
2022-08-19T08:51:38.408Z,1004.69
2022-08-19T08:52:39.453Z,1004.68
2022-08-19T08:53:41.396Z,1004.67
2022-08-19T08:54:38.276Z,1004.65
2022-08-19T08:55:38.322Z,1004.69
2022-08-19T08:56:38.260Z,1004.69
2022-08-19T08:57:40.998Z,1004.70
2022-08-19T08:58:38.298Z,1004.70
2022-08-19T08:59:38.221Z,1004.68
2022-08-19T09:00:38.217Z,1004.67
2022-08-19T09:01:38.233Z,1004.70
2022-08-19T09:02:38.210Z,1004.72
2022-08-19T09:03:38.178Z,1004.79
2022-08-19T09:04:38.171Z,1004.79
2022-08-19T09:05:42.133Z,1004.71
2022-08-19T09:06:40.856Z,1004.72
2022-08-19T09:07:39.803Z,1004.78
2022-08-19T09:08:38.122Z,1004.77
2022-08-19T09:09:38.117Z,1004.75
2022-08-19T09:10:44.326Z,1004.73
2022-08-19T09:11:42.555Z,1004.74
2022-08-19T09:12:39.112Z,1004.74
2022-08-19T09:13:38.082Z,1004.75
2022-08-19T09:14:50.264Z,1004.69
2022-08-19T09:15:39.044Z,1004.62
2022-08-19T09:16:38.042Z,1004.57
2022-08-19T09:17:38.028Z,1004.64
2022-08-19T09:18:38.046Z,1004.58
2022-08-19T09:19:38.000Z,1004.63
2022-08-19T09:20:37.992Z,1004.66
2022-08-19T09:21:38.979Z,1004.66
2022-08-19T09:22:38.026Z,1004.69
2022-08-19T09:23:37.953Z,1004.72
2022-08-19T09:24:37.950Z,1004.67
2022-08-19T09:25:37.935Z,1004.60
2022-08-19T09:26:47.851Z,1004.59
2022-08-19T09:27:42.932Z,1004.57
2022-08-19T09:28:37.923Z,1004.60
2022-08-19T09:29:37.897Z,1004.59
2022-08-19T09:30:37.884Z,1004.60
2022-08-19T09:31:37.871Z,1004.59
2022-08-19T09:32:37.865Z,1004.63
2022-08-19T09:33:37.883Z,1004.60
2022-08-19T09:34:38.178Z,1004.56
2022-08-19T09:35:43.907Z,1004.55
2022-08-19T09:36:38.843Z,1004.61
2022-08-19T09:37:37.823Z,1004.65
2022-08-19T09:38:37.797Z,1004.67
2022-08-19T09:39:38.822Z,1004.57
2022-08-19T09:40:38.587Z,1004.60
2022-08-19T09:41:37.758Z,1004.53
2022-08-19T09:42:37.802Z,1004.52
2022-08-19T09:43:44.361Z,1004.58
2022-08-19T09:44:38.724Z,1004.61
2022-08-19T09:45:37.743Z,1004.65
2022-08-19T09:46:37.784Z,1004.59
2022-08-19T09:47:37.692Z,1004.61
2022-08-19T09:48:37.770Z,1004.59
2022-08-19T09:49:37.668Z,1004.50
2022-08-19T09:50:37.707Z,1004.54
2022-08-19T09:51:37.652Z,1004.50
2022-08-19T09:52:37.645Z,1004.54
2022-08-19T09:53:37.664Z,1004.52
2022-08-19T09:54:37.658Z,1004.57
2022-08-19T09:55:37.600Z,1004.59
2022-08-19T09:56:37.601Z,1004.62
2022-08-19T09:57:37.623Z,1004.66
2022-08-19T09:58:37.581Z,1004.62
2022-08-19T09:59:37.781Z,1004.68
2022-08-19T10:00:37.576Z,1004.66
2022-08-19T10:01:37.601Z,1004.61
2022-08-19T10:02:37.529Z,1004.58
2022-08-19T10:03:37.694Z,1004.54
2022-08-19T10:04:37.536Z,1004.55
2022-08-19T10:05:37.503Z,1004.50
2022-08-19T10:06:45.191Z,1004.48
2022-08-19T10:07:38.549Z,1004.48
2022-08-19T10:08:37.470Z,1004.54
2022-08-19T10:09:37.475Z,1004.48
2022-08-19T10:10:37.448Z,1004.52
2022-08-19T10:11:40.607Z,1004.50
2022-08-19T10:12:37.416Z,1004.50
2022-08-19T10:13:37.407Z,1004.54
2022-08-19T10:14:37.513Z,1004.59
2022-08-19T10:15:47.380Z,1004.53
2022-08-19T10:16:39.720Z,1004.50
2022-08-19T10:17:37.362Z,1004.49
2022-08-19T10:18:37.359Z,1004.54
2022-08-19T10:19:37.359Z,1004.60
2022-08-19T10:20:37.551Z,1004.55
2022-08-19T10:21:37.323Z,1004.49
2022-08-19T10:22:37.330Z,1004.57
2022-08-19T10:23:37.298Z,1004.54
2022-08-19T10:24:37.567Z,1004.53
2022-08-19T10:25:38.352Z,1004.55
2022-08-19T10:26:37.265Z,1004.52
2022-08-19T10:27:37.269Z,1004.46
2022-08-19T10:28:37.246Z,1004.49
2022-08-19T10:29:37.231Z,1004.49
2022-08-19T10:30:38.247Z,1004.51
2022-08-19T10:32:00.082Z,1004.56
2022-08-19T10:32:38.204Z,1004.49
2022-08-19T10:33:42.602Z,1004.51
2022-08-19T10:34:38.177Z,1004.53
2022-08-19T10:35:56.297Z,1004.58
2022-08-19T10:36:38.153Z,1004.47
2022-08-19T10:37:56.766Z,1004.46
2022-08-19T10:38:38.137Z,1004.39
2022-08-19T10:39:43.322Z,1004.45
2022-08-19T10:40:38.137Z,1004.28
2022-08-19T10:41:37.121Z,1004.29
2022-08-19T10:42:37.101Z,1004.41
2022-08-19T10:43:37.121Z,1004.38
2022-08-19T10:44:37.118Z,1004.31
2022-08-19T10:45:37.056Z,1004.32
2022-08-19T10:46:38.045Z,1004.32
2022-08-19T10:47:37.038Z,1004.41
2022-08-19T10:48:37.173Z,1004.41
2022-08-19T10:49:37.018Z,1004.45
2022-08-19T10:50:37.105Z,1004.41
2022-08-19T10:51:36.998Z,1004.42
2022-08-19T10:52:38.806Z,1004.41
2022-08-19T10:53:36.983Z,1004.37
2022-08-19T10:54:36.963Z,1004.35
2022-08-19T10:55:36.970Z,1004.34
2022-08-19T10:56:36.941Z,1004.36
2022-08-19T10:57:59.282Z,1004.35
2022-08-19T10:58:38.228Z,1004.40
2022-08-19T10:59:36.932Z,1004.36
2022-08-19T11:00:36.919Z,1004.38
2022-08-19T11:01:36.987Z,1004.46
2022-08-19T11:02:36.874Z,1004.43
2022-08-19T11:03:36.863Z,1004.45
2022-08-19T11:04:36.853Z,1004.49
2022-08-19T11:05:40.399Z,1004.46
2022-08-19T11:06:36.851Z,1004.45
2022-08-19T11:07:36.825Z,1004.47
2022-08-19T11:08:36.829Z,1004.45
2022-08-19T11:09:36.802Z,1004.48
2022-08-19T11:10:36.786Z,1004.50
2022-08-19T11:11:39.415Z,1004.57
2022-08-19T11:12:36.761Z,1004.57
2022-08-19T11:13:36.757Z,1004.56
2022-08-19T11:14:36.741Z,1004.53
2022-08-19T11:15:36.748Z,1004.53
2022-08-19T11:16:36.744Z,1004.45
2022-08-19T11:17:36.713Z,1004.51
2022-08-19T11:18:36.712Z,1004.52
2022-08-19T11:19:36.697Z,1004.59
2022-08-19T11:20:36.709Z,1004.57
2022-08-19T11:21:36.678Z,1004.57
2022-08-19T11:22:40.500Z,1004.60
2022-08-19T11:23:37.642Z,1004.60
2022-08-19T11:24:36.818Z,1004.66
2022-08-19T11:25:36.643Z,1004.64
2022-08-19T11:26:36.609Z,1004.60
2022-08-19T11:27:36.607Z,1004.60
2022-08-19T11:28:36.783Z,1004.61
2022-08-19T11:29:36.602Z,1004.60
2022-08-19T11:30:36.592Z,1004.63
2022-08-19T11:31:36.561Z,1004.62
2022-08-19T11:32:36.544Z,1004.63
2022-08-19T11:33:36.568Z,1004.62
2022-08-19T11:34:36.530Z,1004.69
2022-08-19T11:35:36.538Z,1004.71
2022-08-19T11:36:36.505Z,1004.71
2022-08-19T11:37:36.496Z,1004.73
2022-08-19T11:38:36.502Z,1004.69
2022-08-19T11:39:36.789Z,1004.66
2022-08-19T11:40:36.463Z,1004.65
2022-08-19T11:41:36.456Z,1004.63
2022-08-19T11:42:36.443Z,1004.62
2022-08-19T11:43:37.664Z,1004.67
2022-08-19T11:44:36.854Z,1004.65
2022-08-19T11:45:36.468Z,1004.70
2022-08-19T11:46:36.401Z,1004.74
2022-08-19T11:47:36.443Z,1004.73
2022-08-19T11:48:36.370Z,1004.74
2022-08-19T11:49:36.356Z,1004.79
2022-08-19T11:50:36.449Z,1004.74
2022-08-19T11:51:36.353Z,1004.70
2022-08-19T11:52:36.418Z,1004.74
2022-08-19T11:53:36.321Z,1004.85
2022-08-19T11:54:36.321Z,1004.77
2022-08-19T11:55:36.347Z,1004.84
2022-08-19T11:56:37.281Z,1004.81
2022-08-19T11:57:36.295Z,1004.81
2022-08-19T11:58:36.378Z,1004.86
2022-08-19T11:59:36.260Z,1004.89
2022-08-19T12:00:36.237Z,1004.88
2022-08-19T12:01:36.246Z,1004.89
2022-08-19T12:02:36.386Z,1004.87
2022-08-19T12:03:36.283Z,1004.91
2022-08-19T12:04:36.197Z,1004.89
2022-08-19T12:05:36.183Z,1004.90
2022-08-19T12:06:36.170Z,1004.90
2022-08-19T12:07:36.179Z,1004.94
2022-08-19T12:08:36.152Z,1005.00
2022-08-19T12:09:36.141Z,1004.97